Villa de Caney, Puerto Rico
Current Conditions -  °F | °C
As of 1:56 PM on Friday 21 Nov 2014 (Local Time) from TJSJ Reporting Station
Scattered Clouds Scattered Clouds  
Wind Chill: 85°   Ceiling: Unl
Heat Index: 92°   Visibility: 10mi
Dew Point: 74°   Wind: 15mph
Humidity: 69%   Direction: 60°ENE
Pressure: 29.97"   Gusts: NA
Location:  18.3569°N, 66.0247°W
Report Text: TJSJ 211756Z 06013KT 10SM FEW029 SCT034 29/23 A2997 RMK AO2 SLP147 SHRA DSNT S T02940233 10306 20267 58024
Loading
Personal Weather Stations






























Interactive Weather Map New forecast layout! Learn more

10-Day Weather Forecast

Advertisements
Track Severe Weather on mobile